Time;durP1;ratioP1;P1;durP2;ratioP2;P2;SDS_P1;SDS_P2;PMS_P1;PMS_P2;Temp;Humidity;BMP_temperature;BMP_pressure;BME280_temperature;BME280_humidity;BME280_pressure;Samples;Min_cycle;Max_cycle;Signal;HPM_P1;HPM_P2
2024/04/02 00:02:17;;;;;;;0.70;0.70;;;;;;;7.47;100.00;96373.41;6291286;28;20190;-53
2024/04/02 00:05:18;;;;;;;1.20;1.10;;;;;;;7.25;100.00;96347.03;6295569;28;20186;-51
2024/04/02 00:08:19;;;;;;;0.90;0.90;;;;;;;7.39;100.00;96368.56;6294650;28;20202;-49
2024/04/02 00:11:21;;;;;;;0.90;0.70;;;;;;;7.38;100.00;96378.38;6293912;28;20216;-50
2024/04/02 00:14:22;;;;;;;1.20;0.90;;;;;;;7.43;100.00;96375.75;6291132;28;20182;-52
2024/04/02 00:17:23;;;;;;;1.73;1.03;;;;;;;7.52;100.00;96384.03;6273239;28;20191;-53
2024/04/02 00:20:25;;;;;;;1.00;1.00;;;;;;;7.28;100.00;96359.75;6289235;28;20874;-51
2024/04/02 00:23:26;;;;;;;1.03;0.93;;;;;;;7.42;100.00;96381.31;6301224;28;20197;-50
2024/04/02 00:26:27;;;;;;;1.40;1.00;;;;;;;7.46;100.00;96388.50;6290341;28;20206;-50
2024/04/02 00:29:28;;;;;;;0.97;0.97;;;;;;;7.42;100.00;96376.00;6295929;28;20190;-52
2024/04/02 00:32:29;;;;;;;1.10;1.00;;;;;;;7.59;100.00;96367.94;6302475;28;20205;-52
2024/04/02 00:35:30;;;;;;;2.40;0.83;;;;;;;7.53;100.00;96380.34;6291413;28;20193;-52
2024/04/02 00:38:33;;;;;;;1.00;0.90;;;;;;;7.44;100.00;96390.63;6292872;28;20676;-52
2024/04/02 00:41:36;;;;;;;1.27;0.90;;;;;;;7.38;100.00;96382.88;6298078;28;20207;-52
2024/04/02 00:44:37;;;;;;;1.27;0.97;;;;;;;7.28;100.00;96398.69;6290823;28;20281;-50
2024/04/02 00:47:39;;;;;;;0.93;0.83;;;;;;;7.40;100.00;96420.53;6302565;28;20209;-51
2024/04/02 00:50:40;;;;;;;1.40;0.87;;;;;;;7.60;100.00;96431.28;6276725;28;20209;-51
2024/04/02 00:53:42;;;;;;;0.80;0.80;;;;;;;7.60;100.00;96439.22;6289994;28;20191;-52
2024/04/02 00:56:43;;;;;;;0.80;0.80;;;;;;;7.34;100.00;96422.34;6283285;28;20182;-53
2024/04/02 00:59:47;;;;;;;0.80;0.80;;;;;;;7.51;100.00;96448.69;6282886;28;20244;-54
2024/04/02 01:02:49;;;;;;;0.60;0.60;;;;;;;7.70;100.00;96433.22;6285699;28;20201;-51
2024/04/02 01:05:52;;;;;;;1.07;0.70;;;;;;;7.62;100.00;96431.03;6284339;28;20210;-52
2024/04/02 01:08:53;;;;;;;0.50;0.50;;;;;;;7.49;100.00;96426.97;6284852;28;20187;-53
2024/04/02 01:11:54;;;;;;;0.50;0.50;;;;;;;7.69;100.00;96426.31;6301409;28;20254;-52
2024/04/02 01:14:55;;;;;;;0.93;0.60;;;;;;;7.62;100.00;96428.38;6284068;28;20197;-51
2024/04/02 01:17:57;;;;;;;0.60;0.47;;;;;;;7.62;100.00;96436.31;6283840;28;20189;-49
2024/04/02 01:20:58;;;;;;;0.40;0.40;;;;;;;7.50;100.00;96417.97;6284696;28;20190;-51
2024/04/02 01:24:00;;;;;;;0.80;0.50;;;;;;;7.58;100.00;96437.88;6289093;28;20195;-52
2024/04/02 01:27:02;;;;;;;2.00;0.50;;;;;;;7.67;100.00;96445.09;6286943;28;20216;-50
2024/04/02 01:30:04;;;;;;;0.50;0.50;;;;;;;7.71;100.00;96440.91;6286302;28;20190;-51
2024/04/02 01:33:05;;;;;;;0.40;0.40;;;;;;;7.65;100.00;96457.03;6292911;28;20193;-49
2024/04/02 01:36:06;;;;;;;0.50;0.50;;;;;;;7.67;100.00;96455.72;6299999;28;20196;-50
2024/04/02 01:39:07;;;;;;;2.37;0.60;;;;;;;7.76;100.00;96456.06;6294418;28;20242;-51
2024/04/02 01:42:08;;;;;;;0.40;0.40;;;;;;;7.75;100.00;96457.09;6291702;28;20206;-50
2024/04/02 01:45:10;;;;;;;0.40;0.40;;;;;;;7.78;100.00;96461.88;6287586;28;20204;-51
2024/04/02 01:48:11;;;;;;;0.50;0.40;;;;;;;7.74;100.00;96453.66;6288220;28;20200;-51
2024/04/02 01:51:12;;;;;;;0.50;0.50;;;;;;;7.65;100.00;96451.72;6293326;28;20189;-49
2024/04/02 01:54:13;;;;;;;1.43;0.60;;;;;;;7.52;100.00;96446.84;6294333;28;20194;-50
2024/04/02 01:57:14;;;;;;;0.43;0.40;;;;;;;7.38;100.00;96439.31;6293077;28;20576;-48
2024/04/02 02:00:18;;;;;;;1.50;0.50;;;;;;;7.24;100.00;96456.66;6289120;28;20190;-52
2024/04/02 02:03:19;;;;;;;0.80;0.60;;;;;;;7.21;100.00;96457.16;6307156;28;20196;-50
2024/04/02 02:06:20;;;;;;;1.00;0.57;;;;;;;7.16;100.00;96455.25;6287373;28;20202;-53
2024/04/02 02:09:22;;;;;;;0.80;0.60;;;;;;;7.18;100.00;96458.44;6297282;28;20195;-52
2024/04/02 02:12:23;;;;;;;1.00;0.60;;;;;;;7.19;100.00;96446.84;6298555;28;20190;-51
2024/04/02 02:15:24;;;;;;;0.63;0.50;;;;;;;7.28;100.00;96456.97;6296307;28;20185;-52
2024/04/02 02:18:25;;;;;;;0.50;0.50;;;;;;;7.45;100.00;96453.16;6301445;28;20230;-51
2024/04/02 02:21:26;;;;;;;0.60;0.50;;;;;;;7.76;100.00;96446.25;6294605;28;20662;-51
2024/04/02 02:24:27;;;;;;;0.50;0.50;;;;;;;7.67;100.00;96449.63;6282517;28;20691;-51
2024/04/02 02:27:29;;;;;;;0.67;0.60;;;;;;;7.68;100.00;96459.94;6293728;28;20202;-50
2024/04/02 02:30:30;;;;;;;0.70;0.60;;;;;;;7.88;99.95;96456.69;6280164;28;20218;-52
2024/04/02 02:33:31;;;;;;;0.37;0.37;;;;;;;7.81;100.00;96452.63;6275363;28;20256;-51
2024/04/02 02:36:32;;;;;;;0.70;0.70;;;;;;;7.97;96.96;96481.66;6293147;28;20197;-52
2024/04/02 02:39:33;;;;;;;0.87;0.50;;;;;;;7.96;97.56;96474.75;6278091;28;20193;-52
2024/04/02 02:42:34;;;;;;;0.40;0.40;;;;;;;8.12;95.58;96474.84;6293831;28;20198;-50
2024/04/02 02:45:35;;;;;;;0.70;0.50;;;;;;;7.90;100.00;96472.34;6300124;28;20203;-53
2024/04/02 02:48:36;;;;;;;0.60;0.40;;;;;;;7.64;100.00;96479.28;6294792;28;20186;-50
2024/04/02 02:51:38;;;;;;;1.10;0.67;;;;;;;7.85;97.41;96465.13;6297032;28;20197;-49
2024/04/02 02:54:39;;;;;;;1.13;0.70;;;;;;;7.91;99.99;96481.88;6306366;28;20197;-51
2024/04/02 02:57:40;;;;;;;0.53;0.53;;;;;;;7.93;100.00;96474.47;6289694;28;20676;-49
2024/04/02 03:00:41;;;;;;;2.40;0.80;;;;;;;7.86;100.00;96481.84;6298328;28;20199;-52
2024/04/02 03:03:47;;;;;;;0.57;0.50;;;;;;;7.88;98.02;96480.56;6293206;28;20186;-51
2024/04/02 03:06:48;;;;;;;2.10;0.70;;;;;;;7.94;98.72;96476.88;6290432;28;20205;-53
2024/04/02 03:09:49;;;;;;;0.70;0.70;;;;;;;7.89;100.00;96470.75;6289185;28;20817;-50
2024/04/02 03:12:50;;;;;;;0.60;0.60;;;;;;;7.90;97.59;96482.94;6286257;28;20670;-49
2024/04/02 03:15:52;;;;;;;1.40;0.90;;;;;;;7.97;97.30;96476.34;6292528;28;20562;-50
2024/04/02 03:18:53;;;;;;;1.10;0.70;;;;;;;7.88;100.00;96480.56;6288395;28;20237;-50
2024/04/02 03:21:54;;;;;;;0.93;0.87;;;;;;;7.82;100.00;96505.41;6269447;28;20198;-52
2024/04/02 03:24:55;;;;;;;0.50;0.50;;;;;;;8.03;96.35;96495.78;6297979;28;20286;-51
2024/04/02 03:27:56;;;;;;;0.50;0.50;;;;;;;7.98;100.00;96498.38;6295842;28;20202;-53
2024/04/02 03:30:59;;;;;;;0.53;0.53;;;;;;;7.84;100.00;96503.31;6289565;28;20243;-51
2024/04/02 03:34:00;;;;;;;1.00;0.80;;;;;;;7.88;99.31;96507.06;6287841;28;20729;-54
2024/04/02 03:37:01;;;;;;;0.67;0.67;;;;;;;7.79;100.00;96516.53;6275658;28;20193;-52
2024/04/02 03:40:03;;;;;;;0.63;0.60;;;;;;;7.87;96.77;96521.34;6291162;28;20185;-53
2024/04/02 03:43:04;;;;;;;0.50;0.50;;;;;;;7.85;100.00;96523.47;6293717;28;20190;-53
2024/04/02 03:46:06;;;;;;;0.90;0.80;;;;;;;7.81;100.00;96532.19;6289165;28;20252;-53
2024/04/02 03:49:07;;;;;;;0.70;0.70;;;;;;;7.75;100.00;96549.88;6287819;28;20199;-50
2024/04/02 03:52:08;;;;;;;0.77;0.63;;;;;;;7.80;100.00;96544.63;6295459;28;20227;-49
2024/04/02 03:55:09;;;;;;;0.80;0.60;;;;;;;7.89;100.00;96561.69;6295665;28;20189;-52
2024/04/02 03:58:10;;;;;;;1.17;0.70;;;;;;;8.07;98.54;96570.31;6288904;28;20181;-53
2024/04/02 04:01:11;;;;;;;1.63;0.70;;;;;;;8.24;92.49;96571.00;6277877;28;20271;-52
2024/04/02 04:04:12;;;;;;;0.70;0.70;;;;;;;8.32;96.68;96580.31;6295298;28;20191;-53
2024/04/02 04:07:13;;;;;;;0.93;0.93;;;;;;;8.38;89.90;96564.22;6287629;28;20250;-51
2024/04/02 04:10:16;;;;;;;0.50;0.50;;;;;;;8.16;95.04;96542.25;6290225;28;20194;-48
2024/04/02 04:13:17;;;;;;;1.10;0.90;;;;;;;8.34;96.23;96571.06;6288898;28;20191;-49
2024/04/02 04:16:18;;;;;;;0.87;0.87;;;;;;;8.21;97.97;96568.84;6288646;28;20194;-51
2024/04/02 04:19:19;;;;;;;1.20;1.10;;;;;;;8.24;92.05;96573.66;6298623;28;20232;-52
2024/04/02 04:22:20;;;;;;;0.90;0.90;;;;;;;8.37;91.94;96583.84;6288879;28;20194;-52
2024/04/02 04:25:22;;;;;;;1.57;1.00;;;;;;;8.35;94.77;96595.75;6284341;28;20194;-52
2024/04/02 04:28:24;;;;;;;0.70;0.70;;;;;;;8.36;92.40;96590.19;6303939;28;20267;-52
2024/04/02 04:31:25;;;;;;;1.27;0.80;;;;;;;8.33;90.81;96587.25;6295384;28;20224;-50
2024/04/02 04:34:26;;;;;;;1.00;0.83;;;;;;;8.47;88.63;96607.00;6296777;28;20186;-52
2024/04/02 04:37:30;;;;;;;0.80;0.80;;;;;;;8.25;90.43;96567.28;6293083;28;20187;-53
2024/04/02 04:40:31;;;;;;;0.80;0.80;;;;;;;8.37;89.44;96604.28;6305002;28;20227;-52
2024/04/02 04:43:32;;;;;;;1.50;0.87;;;;;;;8.41;90.46;96613.31;6299157;28;20198;-52
2024/04/02 04:46:33;;;;;;;0.77;0.70;;;;;;;8.25;93.99;96613.19;6294409;28;20209;-52
2024/04/02 04:49:34;;;;;;;1.53;0.73;;;;;;;8.19;95.87;96622.16;6295380;28;20200;-53
2024/04/02 04:52:36;;;;;;;0.80;0.80;;;;;;;8.16;97.50;96620.00;6290561;28;20194;-50
2024/04/02 04:55:37;;;;;;;0.80;0.80;;;;;;;8.25;94.21;96621.13;6287347;28;20242;-53
2024/04/02 04:58:38;;;;;;;1.17;0.87;;;;;;;8.20;94.96;96636.22;6303877;28;20196;-49
2024/04/02 05:01:39;;;;;;;1.17;0.87;;;;;;;8.25;93.82;96642.38;6298779;28;20198;-50
2024/04/02 05:04:40;;;;;;;1.23;0.90;;;;;;;8.23;92.67;96651.63;6283133;28;20275;-52
2024/04/02 05:07:56;;;;;;;0.70;0.70;;;;;;;8.27;92.50;96661.50;6289483;28;20202;-53
2024/04/02 05:10:57;;;;;;;0.80;0.80;;;;;;;8.22;92.88;96650.81;6274288;28;20201;-52
2024/04/02 05:13:58;;;;;;;0.87;0.67;;;;;;;8.23;93.73;96652.44;6291467;28;20245;-50
2024/04/02 05:16:59;;;;;;;0.77;0.57;;;;;;;8.14;95.92;96661.91;6285804;28;20239;-51
2024/04/02 05:20:00;;;;;;;1.27;0.50;;;;;;;8.42;89.85;96665.34;6299933;28;20237;-51
2024/04/02 05:23:02;;;;;;;0.53;0.53;;;;;;;8.55;88.69;96670.25;6292327;28;20196;-52
2024/04/02 05:26:05;;;;;;;0.60;0.60;;;;;;;8.42;95.63;96671.47;6295352;28;20203;-51
2024/04/02 05:29:06;;;;;;;0.63;0.60;;;;;;;8.38;91.89;96686.31;6286254;28;20340;-50
2024/04/02 05:32:07;;;;;;;0.70;0.70;;;;;;;8.48;90.69;96672.31;6268103;28;20210;-53
2024/04/02 05:35:08;;;;;;;0.50;0.50;;;;;;;8.52;89.48;96681.34;6285914;28;20198;-50
2024/04/02 05:38:09;;;;;;;0.80;0.77;;;;;;;8.49;92.57;96700.47;6286071;28;20197;-49
2024/04/02 05:41:10;;;;;;;0.40;0.40;;;;;;;8.53;91.88;96682.97;6289118;28;20189;-55
2024/04/02 05:44:11;;;;;;;0.50;0.50;;;;;;;8.56;92.28;96689.63;6292394;28;20181;-53
2024/04/02 05:47:12;;;;;;;0.50;0.50;;;;;;;8.60;92.05;96696.03;6281251;28;20499;-51
2024/04/02 05:50:15;;;;;;;1.07;0.40;;;;;;;8.57;94.04;96691.22;6295482;28;20193;-52
2024/04/02 05:53:16;;;;;;;0.60;0.50;;;;;;;8.68;89.82;96704.34;6292867;28;20194;-53
2024/04/02 05:56:17;;;;;;;0.60;0.53;;;;;;;8.69;90.63;96708.59;6292788;28;20193;-54
2024/04/02 05:59:19;;;;;;;0.50;0.43;;;;;;;8.66;93.50;96713.59;6299802;28;20197;-53
2024/04/02 06:02:20;;;;;;;0.53;0.47;;;;;;;8.73;90.86;96711.53;6301315;28;20205;-52
2024/04/02 06:05:21;;;;;;;0.60;0.50;;;;;;;8.71;89.91;96716.28;6299872;28;20192;-53
2024/04/02 06:08:22;;;;;;;0.63;0.60;;;;;;;8.79;90.59;96721.16;6296569;28;20197;-53
2024/04/02 06:11:23;;;;;;;0.50;0.50;;;;;;;8.82;89.11;96730.44;6294762;28;20706;-54
2024/04/02 06:14:24;;;;;;;1.63;0.70;;;;;;;8.87;88.31;96725.19;6298355;28;20193;-51
2024/04/02 06:17:25;;;;;;;0.80;0.60;;;;;;;8.83;88.09;96726.75;6294357;28;20528;-52
2024/04/02 06:20:26;;;;;;;1.23;0.50;;;;;;;8.92;88.03;96726.03;6297301;28;20232;-52
2024/04/02 06:23:27;;;;;;;0.53;0.53;;;;;;;8.85;86.67;96714.00;6293416;28;20206;-51
2024/04/02 06:26:28;;;;;;;0.63;0.50;;;;;;;9.02;84.35;96728.75;6293017;28;20339;-53
2024/04/02 06:29:29;;;;;;;1.53;0.80;;;;;;;8.97;88.04;96723.41;6297020;28;20190;-52
2024/04/02 06:32:31;;;;;;;1.17;0.50;;;;;;;9.12;86.78;96745.84;6297920;28;20191;-53
2024/04/02 06:35:32;;;;;;;1.80;0.63;;;;;;;9.03;89.54;96727.69;6297955;28;20187;-53
2024/04/02 06:38:33;;;;;;;1.03;0.50;;;;;;;9.18;87.04;96758.09;6292911;28;20662;-51
2024/04/02 06:41:34;;;;;;;2.17;0.70;;;;;;;9.26;87.65;96754.94;6306754;28;20204;-51
2024/04/02 06:44:35;;;;;;;0.43;0.40;;;;;;;9.61;83.47;96772.19;6303530;28;20221;-50
2024/04/02 06:47:36;;;;;;;0.73;0.40;;;;;;;9.49;83.10;96767.06;6297783;28;20227;-51
2024/04/02 06:50:37;;;;;;;2.10;1.03;;;;;;;9.54;85.39;96775.84;6305226;28;20204;-52
2024/04/02 06:53:39;;;;;;;0.50;0.47;;;;;;;9.56;84.31;96746.38;6289138;28;20250;-52
2024/04/02 06:56:40;;;;;;;0.73;0.57;;;;;;;9.71;83.55;96798.84;6290450;28;20184;-54
2024/04/02 06:59:41;;;;;;;0.50;0.50;;;;;;;9.83;81.96;96773.63;6285091;28;20208;-52
2024/04/02 07:02:43;;;;;;;2.57;0.60;;;;;;;9.90;83.94;96780.56;6288725;28;20198;-53
2024/04/02 07:05:45;;;;;;;1.93;0.30;;;;;;;10.13;78.96;96792.63;6286691;28;20209;-51
2024/04/02 07:08:46;;;;;;;2.37;0.40;;;;;;;10.26;76.46;96786.88;6283165;28;20213;-52
2024/04/02 07:11:47;;;;;;;1.30;0.60;;;;;;;10.27;77.79;96793.78;6287648;28;20192;-53
2024/04/02 07:14:48;;;;;;;0.80;0.60;;;;;;;10.43;76.27;96798.09;6289072;28;20188;-52
2024/04/02 07:17:50;;;;;;;0.37;0.37;;;;;;;10.51;74.57;96783.47;6286176;28;20254;-51
2024/04/02 07:21:04;;;;;;;0.40;0.33;;;;;;;10.45;78.85;96777.34;6287951;28;20194;-53
2024/04/02 07:24:06;;;;;;;0.30;0.30;;;;;;;10.65;73.38;96786.44;6283879;28;20202;-53
2024/04/02 07:27:07;;;;;;;1.60;0.40;;;;;;;10.79;75.08;96795.53;6292633;28;20223;-53
2024/04/02 07:30:11;;;;;;;0.30;0.30;;;;;;;10.84;74.65;96792.88;6289135;28;20216;-53
2024/04/02 07:33:13;;;;;;;0.67;0.47;;;;;;;10.65;74.88;96794.44;6290733;28;20573;-52
2024/04/02 07:36:14;;;;;;;0.40;0.40;;;;;;;10.72;74.45;96803.75;6290290;28;20198;-53
2024/04/02 07:39:15;;;;;;;0.77;0.50;;;;;;;10.66;73.30;96786.16;6294523;28;20215;-51
2024/04/02 07:42:16;;;;;;;0.50;0.40;;;;;;;10.85;72.34;96805.13;6290573;28;20202;-52
2024/04/02 07:45:17;;;;;;;1.10;0.57;;;;;;;10.91;75.91;96798.72;6295419;28;20208;-53
2024/04/02 07:48:20;;;;;;;0.60;0.30;;;;;;;11.01;71.54;96814.72;6281257;28;20200;-53
2024/04/02 07:51:21;;;;;;;0.50;0.50;;;;;;;11.15;76.17;96801.66;6294919;28;20205;-53
2024/04/02 07:54:22;;;;;;;0.30;0.30;;;;;;;10.89;71.17;96832.84;6289609;28;20198;-54
2024/04/02 07:57:24;;;;;;;1.57;0.53;;;;;;;10.93;73.24;96823.22;6295660;28;20243;-51
2024/04/02 08:00:25;;;;;;;0.70;0.40;;;;;;;10.98;72.38;96841.88;6293350;28;20564;-53
2024/04/02 08:03:26;;;;;;;1.07;0.37;;;;;;;11.05;72.84;96839.78;6289903;28;20200;-53
2024/04/02 08:06:27;;;;;;;0.33;0.33;;;;;;;11.40;70.58;96862.19;6291311;28;20227;-53
2024/04/02 08:09:28;;;;;;;1.50;0.40;;;;;;;11.63;69.39;96852.84;6306227;28;20207;-56
2024/04/02 08:12:29;;;;;;;0.53;0.30;;;;;;;11.97;68.59;96869.09;6301388;28;20194;-55
2024/04/02 08:15:30;;;;;;;0.73;0.50;;;;;;;12.07;64.28;96861.06;6290213;28;20263;-53
2024/04/02 08:18:31;;;;;;;1.10;0.43;;;;;;;12.20;66.56;96890.94;6291217;28;20263;-50
2024/04/02 08:21:32;;;;;;;0.50;0.40;;;;;;;12.03;68.59;96873.34;6297131;28;20189;-55
2024/04/02 08:24:34;;;;;;;1.33;0.50;;;;;;;11.63;64.15;96818.16;6294693;28;20213;-55
2024/04/02 08:27:35;;;;;;;1.00;0.50;;;;;;;11.68;68.72;96890.19;6291490;28;20255;-53
2024/04/02 08:30:36;;;;;;;0.60;0.50;;;;;;;11.72;68.78;96904.56;6290894;28;20791;-52
2024/04/02 08:33:37;;;;;;;0.70;0.40;;;;;;;11.83;65.43;96895.53;6290744;28;20205;-53
2024/04/02 08:36:39;;;;;;;0.80;0.50;;;;;;;12.00;67.36;96881.09;6305413;28;20194;-52
2024/04/02 08:39:43;;;;;;;1.43;0.43;;;;;;;12.38;66.37;96882.34;6304053;28;20197;-54
2024/04/02 08:42:52;;;;;;;1.70;0.50;;;;;;;12.34;68.46;96895.44;6281928;28;20182;-53
2024/04/02 08:45:53;;;;;;;2.10;0.60;;;;;;;12.62;65.96;96902.00;6302048;28;20197;-54
2024/04/02 08:48:58;;;;;;;1.47;0.60;;;;;;;12.74;59.91;96906.22;6289236;28;20205;-53
2024/04/02 08:52:03;;;;;;;2.03;0.40;;;;;;;12.80;62.29;96923.84;6290583;28;20220;-52
2024/04/02 08:55:05;;;;;;;1.27;0.50;;;;;;;12.88;60.57;96912.56;6294621;28;20201;-55
2024/04/02 08:58:07;;;;;;;0.77;0.40;;;;;;;12.81;58.29;96931.59;6292548;28;20178;-54
2024/04/02 09:01:12;;;;;;;0.43;0.40;;;;;;;12.79;60.49;96927.59;6287156;28;20201;-55
2024/04/02 09:04:13;;;;;;;1.03;0.50;;;;;;;12.81;63.29;96936.94;6306084;28;20200;-52
2024/04/02 09:07:14;;;;;;;1.40;0.47;;;;;;;12.97;61.20;96942.22;6287931;28;20293;-53
2024/04/02 09:10:15;;;;;;;1.43;0.50;;;;;;;12.99;59.40;96946.19;6292523;28;20555;-53
2024/04/02 09:13:16;;;;;;;2.03;0.70;;;;;;;13.06;56.27;96959.28;6289630;28;20605;-53
2024/04/02 09:16:17;;;;;;;1.77;0.47;;;;;;;12.90;57.58;96943.28;6287161;28;20218;-55
2024/04/02 09:19:19;;;;;;;1.00;0.43;;;;;;;12.60;60.23;96959.44;6300828;28;20226;-56
2024/04/02 09:22:20;;;;;;;0.50;0.47;;;;;;;12.53;59.63;96954.41;6292434;28;20194;-54
2024/04/02 09:25:23;;;;;;;1.60;0.60;;;;;;;12.84;60.29;96973.00;6292169;28;20203;-54
2024/04/02 09:28:25;;;;;;;3.00;0.70;;;;;;;12.58;61.21;96996.34;6289176;28;20394;-56
2024/04/02 09:31:32;;;;;;;3.37;0.50;;;;;;;12.38;61.94;96986.50;6299451;28;20281;-54
2024/04/02 09:34:35;;;;;;;0.40;0.40;;;;;;;12.83;59.54;96988.25;6301810;28;20197;-54
2024/04/02 09:37:39;;;;;;;0.80;0.50;;;;;;;12.81;59.63;96989.59;6279674;28;20677;-55
2024/04/02 09:40:42;;;;;;;0.80;0.47;;;;;;;12.34;58.88;96998.78;6281357;28;20308;-54
2024/04/02 09:43:44;;;;;;;0.90;0.30;;;;;;;12.31;60.26;96988.63;6293275;28;20213;-51
2024/04/02 09:46:45;;;;;;;1.27;0.50;;;;;;;12.33;60.64;97014.03;6288556;28;20262;-56
2024/04/02 09:49:48;;;;;;;2.13;0.60;;;;;;;12.80;60.65;97017.38;6283672;28;20673;-55
2024/04/02 09:52:52;;;;;;;0.67;0.40;;;;;;;12.25;58.54;97008.41;6269537;28;20235;-53
2024/04/02 09:55:55;;;;;;;1.63;0.60;;;;;;;12.56;60.52;97001.97;6283957;28;20206;-54
2024/04/02 09:58:56;;;;;;;0.40;0.40;;;;;;;12.52;57.89;97005.44;6295788;28;20232;-56
2024/04/02 10:01:58;;;;;;;1.50;0.43;;;;;;;12.74;57.44;96999.75;6284347;28;20201;-54
2024/04/02 10:04:59;;;;;;;1.13;0.40;;;;;;;12.57;59.38;97000.88;6288675;28;20199;-54
2024/04/02 10:08:03;;;;;;;0.67;0.57;;;;;;;12.83;59.55;96993.59;6289643;28;20212;-55
2024/04/02 10:11:08;;;;;;;0.97;0.50;;;;;;;12.50;56.11;97015.59;6293222;28;20206;-55
2024/04/02 10:14:17;;;;;;;0.50;0.40;;;;;;;12.34;58.27;97017.47;6282721;28;20858;-56
2024/04/02 10:17:18;;;;;;;4.50;0.80;;;;;;;12.28;57.57;97019.38;6289378;28;20242;-55
2024/04/02 10:20:33;;;;;;;0.30;0.30;;;;;;;12.36;58.08;97032.19;6292829;28;20312;-54
2024/04/02 10:23:34;;;;;;;0.40;0.40;;;;;;;12.34;59.42;97022.81;6290762;28;20187;-54
2024/04/02 10:26:38;;;;;;;2.73;0.77;;;;;;;12.37;60.97;97027.66;6289860;28;20619;-56
2024/04/02 10:29:39;;;;;;;0.83;0.57;;;;;;;12.46;60.86;97030.53;6259978;28;20285;-54
2024/04/02 10:32:42;;;;;;;1.73;0.70;;;;;;;12.50;60.74;97032.41;6286206;28;20820;-56
2024/04/02 10:35:43;;;;;;;3.27;0.80;;;;;;;12.87;60.66;97039.28;6286371;28;20557;-55
2024/04/02 10:38:44;;;;;;;0.50;0.50;;;;;;;13.04;57.58;97026.38;6269894;28;20212;-54
2024/04/02 10:41:46;;;;;;;0.80;0.60;;;;;;;13.01;58.76;97015.47;6293294;28;20198;-54
2024/04/02 10:44:47;;;;;;;1.87;0.47;;;;;;;13.24;61.38;97028.22;6289622;28;20247;-56
2024/04/02 10:47:52;;;;;;;0.53;0.30;;;;;;;13.35;56.92;97034.34;6286963;28;20218;-54
2024/04/02 10:50:53;;;;;;;1.57;0.43;;;;;;;13.26;57.22;97011.91;6293283;28;20209;-55
2024/04/02 10:53:56;;;;;;;0.97;0.40;;;;;;;13.47;56.67;97013.38;6294467;28;20773;-54
2024/04/02 10:56:57;;;;;;;0.47;0.40;;;;;;;13.71;53.39;97029.56;6277111;28;20206;-55
2024/04/02 11:00:01;;;;;;;0.37;0.30;;;;;;;13.79;54.90;97026.31;6303429;28;20232;-54
2024/04/02 11:03:03;;;;;;;0.60;0.40;;;;;;;14.18;55.54;97045.00;6306732;28;20541;-55
2024/04/02 11:06:05;;;;;;;0.63;0.30;;;;;;;14.10;55.25;97042.94;6298229;28;20197;-55
2024/04/02 11:09:11;;;;;;;0.60;0.50;;;;;;;13.73;50.92;97042.66;6292005;28;20670;-53
2024/04/02 11:12:12;;;;;;;0.53;0.20;;;;;;;13.74;51.75;97042.38;6290275;28;20194;-52
2024/04/02 11:15:13;;;;;;;0.67;0.40;;;;;;;13.66;50.25;97037.63;6295248;28;20189;-55
2024/04/02 11:18:23;;;;;;;1.80;0.30;;;;;;;13.67;50.42;97053.41;6291143;28;20235;-54
2024/04/02 11:21:25;;;;;;;0.33;0.30;;;;;;;13.66;55.46;97075.91;6290928;28;20195;-54
2024/04/02 11:27:46;;;;;;;0.90;0.40;;;;;;;13.37;54.81;97091.03;6299395;28;20205;-54
2024/04/02 11:30:47;;;;;;;0.30;0.20;;;;;;;13.26;50.11;97087.59;6300219;28;20194;-53
2024/04/02 11:33:48;;;;;;;0.30;0.30;;;;;;;13.07;51.20;97079.34;6287984;28;20202;-55
2024/04/02 11:36:49;;;;;;;0.33;0.27;;;;;;;12.76;51.25;97073.28;6286424;28;20271;-53
2024/04/02 11:39:51;;;;;;;1.20;0.40;;;;;;;12.78;52.01;97102.41;6284480;28;20743;-53
2024/04/02 11:42:52;;;;;;;0.20;0.20;;;;;;;12.53;54.42;97096.00;6283654;28;20217;-53
2024/04/02 11:45:53;;;;;;;0.97;0.20;;;;;;;12.79;57.62;97094.09;6290755;28;20193;-54
2024/04/02 11:48:54;;;;;;;0.97;0.30;;;;;;;13.15;55.66;97097.50;6286024;28;20201;-54
2024/04/02 11:51:55;;;;;;;2.60;0.27;;;;;;;13.24;53.53;97121.81;6297462;28;20197;-55
2024/04/02 11:54:56;;;;;;;0.63;0.20;;;;;;;13.21;51.83;97119.69;6296657;28;20201;-53
2024/04/02 12:01:17;;;;;;;1.03;0.30;;;;;;;12.82;53.09;97114.16;6290597;28;20281;-54
2024/04/02 12:04:18;;;;;;;0.20;0.20;;;;;;;12.96;50.62;97085.00;6294138;28;20724;-52
2024/04/02 12:07:20;;;;;;;0.33;0.20;;;;;;;13.20;54.93;97096.69;6290118;28;20271;-53
2024/04/02 12:10:21;;;;;;;0.20;0.20;;;;;;;13.35;50.81;97077.13;6289271;28;20729;-53
2024/04/02 12:13:22;;;;;;;0.23;0.23;;;;;;;13.57;50.87;97093.63;6290705;28;20229;-53
2024/04/02 12:16:23;;;;;;;0.43;0.30;;;;;;;13.29;50.74;97091.59;6292944;28;20197;-56
2024/04/02 12:19:24;;;;;;;0.57;0.30;;;;;;;13.06;51.41;97093.00;6299550;28;20232;-51
2024/04/02 12:22:26;;;;;;;2.30;0.37;;;;;;;12.94;55.82;97090.59;6302754;28;20185;-55
2024/04/02 12:25:28;;;;;;;0.87;0.30;;;;;;;13.16;51.33;97088.41;6301728;28;20202;-55
2024/04/02 12:28:29;;;;;;;0.20;0.20;;;;;;;13.43;50.11;97084.56;6296466;28;20213;-54
2024/04/02 12:31:30;;;;;;;0.20;0.20;;;;;;;13.25;48.91;97094.03;6295573;28;20193;-53
2024/04/02 12:34:32;;;;;;;0.20;0.20;;;;;;;13.28;49.78;97090.78;6299488;28;20221;-54
2024/04/02 12:37:33;;;;;;;0.93;0.30;;;;;;;13.40;49.75;97096.66;6291960;28;20219;-55
2024/04/02 12:40:36;;;;;;;0.20;0.20;;;;;;;13.42;50.90;97096.34;6296927;28;20206;-55
2024/04/02 12:43:37;;;;;;;0.30;0.20;;;;;;;13.72;48.93;97073.19;6288682;28;20406;-54
2024/04/02 12:46:38;;;;;;;0.30;0.30;;;;;;;13.94;47.71;97082.44;6305499;28;20221;-54
2024/04/02 12:49:39;;;;;;;0.50;0.30;;;;;;;14.12;48.89;97080.16;6294436;28;20244;-54
2024/04/02 12:52:41;;;;;;;0.33;0.30;;;;;;;14.34;47.63;97088.56;6285760;28;20565;-54
2024/04/02 12:55:43;;;;;;;0.37;0.30;;;;;;;14.15;49.80;97076.94;6289236;28;20672;-54
2024/04/02 12:58:44;;;;;;;0.60;0.40;;;;;;;14.25;50.31;97073.38;6295128;28;20230;-55
2024/04/02 13:01:45;;;;;;;0.83;0.40;;;;;;;14.31;49.03;97096.38;6289309;28;20197;-56
2024/04/02 13:04:46;;;;;;;0.33;0.27;;;;;;;14.29;47.93;97069.06;6266778;28;20209;-54
2024/04/02 13:07:47;;;;;;;0.20;0.20;;;;;;;14.26;47.21;97086.50;6286249;28;20725;-55
2024/04/02 13:10:49;;;;;;;1.07;0.30;;;;;;;13.80;46.70;97057.34;6284354;28;20203;-55
2024/04/02 13:13:53;;;;;;;0.40;0.30;;;;;;;14.04;45.65;97068.19;6279437;28;20206;-53
2024/04/02 13:16:54;;;;;;;1.20;0.30;;;;;;;14.21;47.85;97078.50;6289525;28;20278;-54
2024/04/02 13:19:57;;;;;;;0.27;0.20;;;;;;;14.49;47.82;97071.59;6287894;28;20222;-54
2024/04/02 13:22:59;;;;;;;0.20;0.20;;;;;;;14.46;46.14;97080.97;6285461;28;20742;-54
2024/04/02 13:26:10;;;;;;;0.33;0.30;;;;;;;14.51;45.34;97088.19;6286163;28;20194;-55
2024/04/02 13:29:13;;;;;;;0.30;0.30;;;;;;;14.42;44.92;97063.03;6284976;28;20713;-55
2024/04/02 13:32:14;;;;;;;0.50;0.30;;;;;;;14.28;49.09;97060.22;6290507;28;20685;-56
2024/04/02 13:35:20;;;;;;;0.93;0.30;;;;;;;14.45;47.90;97067.84;6290522;28;20197;-54
2024/04/02 13:38:21;;;;;;;0.50;0.20;;;;;;;14.76;47.05;97057.66;6283675;28;20233;-54
2024/04/02 13:41:26;;;;;;;1.27;0.40;;;;;;;14.49;46.08;97062.75;6291322;28;20612;-56
2024/04/02 13:44:27;;;;;;;0.50;0.30;;;;;;;14.19;47.02;97068.06;6291785;28;20202;-56
2024/04/02 13:47:30;;;;;;;0.40;0.20;;;;;;;13.80;43.77;97057.34;6288658;28;20636;-53
2024/04/02 13:50:31;;;;;;;0.93;0.30;;;;;;;13.92;44.36;97070.38;6289286;28;20183;-56
2024/04/02 13:53:35;;;;;;;2.73;0.30;;;;;;;14.00;47.26;97080.53;6292575;28;20186;-55
2024/04/02 13:56:36;;;;;;;0.10;0.10;;;;;;;13.97;45.77;97074.91;6296317;28;20716;-54
2024/04/02 13:59:37;;;;;;;1.23;0.20;;;;;;;14.16;48.48;97068.63;6290239;28;20205;-55
2024/04/02 14:02:39;;;;;;;0.50;0.30;;;;;;;14.23;48.13;97080.88;6302135;28;20185;-56
2024/04/02 14:05:40;;;;;;;0.80;0.30;;;;;;;14.23;48.25;97088.91;6293266;28;20205;-54
2024/04/02 14:08:41;;;;;;;0.83;0.30;;;;;;;14.20;46.51;97109.03;6287485;28;20508;-54
2024/04/02 14:11:42;;;;;;;0.20;0.20;;;;;;;13.95;48.21;97080.56;6289645;28;20260;-56
2024/04/02 14:14:44;;;;;;;1.90;0.40;;;;;;;13.65;48.26;97089.56;6289787;28;20181;-55
2024/04/02 14:17:45;;;;;;;0.20;0.20;;;;;;;13.75;47.16;97108.25;6292991;28;20180;-52
2024/04/02 14:20:57;;;;;;;1.07;0.30;;;;;;;13.60;46.50;97098.44;6299465;28;20919;-54
2024/04/02 14:24:00;;;;;;;0.63;0.27;;;;;;;13.59;48.44;97112.84;6288865;28;20194;-55
2024/04/02 14:27:01;;;;;;;0.20;0.20;;;;;;;13.57;48.33;97109.66;6293297;28;20387;-57